createdAt,value
2019-05-02T00:01:38.402Z,7.80
2019-05-02T00:04:11.881Z,7.80
2019-05-02T00:06:42.994Z,7.90
2019-05-02T00:09:12.140Z,8.10
2019-05-02T00:11:41.764Z,8.00
2019-05-02T00:14:12.004Z,8.10
2019-05-02T00:16:45.053Z,7.80
2019-05-02T00:19:13.895Z,8.00
2019-05-02T00:21:43.758Z,7.80
2019-05-02T00:24:13.939Z,8.00
2019-05-02T00:26:43.899Z,7.90
2019-05-02T00:29:13.060Z,7.90
2019-05-02T00:31:46.865Z,7.90
2019-05-02T00:34:14.608Z,7.70
2019-05-02T00:36:44.104Z,7.90
2019-05-02T00:39:15.069Z,7.90
2019-05-02T00:41:44.428Z,7.80
2019-05-02T00:44:13.928Z,7.60
2019-05-02T00:46:44.183Z,7.70
2019-05-02T00:49:13.741Z,7.90
2019-05-02T00:51:42.996Z,8.00
2019-05-02T00:54:12.473Z,7.90
2019-05-02T00:56:44.095Z,7.70
2019-05-02T00:59:12.924Z,7.60
2019-05-02T01:02:05.337Z,7.60
2019-05-02T01:04:37.867Z,7.60
2019-05-02T01:07:07.782Z,7.60
2019-05-02T01:09:37.591Z,7.70
2019-05-02T01:12:08.449Z,7.50
2019-05-02T01:14:37.820Z,7.50
2019-05-02T01:17:07.647Z,7.40
2019-05-02T01:19:37.562Z,7.40
2019-05-02T01:22:10.449Z,7.50
2019-05-02T01:24:39.546Z,7.60
2019-05-02T01:27:15.875Z,7.50
2019-05-02T01:29:51.414Z,7.50
2019-05-02T01:32:37.665Z,7.60
2019-05-02T01:35:31.525Z,7.30
2019-05-02T01:38:26.378Z,7.30
2019-05-02T01:40:56.574Z,7.40
2019-05-02T01:43:27.251Z,7.30
2019-05-02T01:45:56.715Z,7.30
2019-05-02T01:48:26.453Z,7.40
2019-05-02T01:50:56.002Z,7.40
2019-05-02T01:53:29.437Z,7.20
2019-05-02T01:55:57.367Z,7.20
2019-05-02T01:58:27.959Z,7.40
2019-05-02T02:00:57.083Z,7.30
2019-05-02T02:03:26.587Z,7.30
2019-05-02T02:05:56.147Z,7.30
2019-05-02T02:08:27.400Z,7.30
2019-05-02T02:10:58.180Z,7.30
2019-05-02T02:13:31.306Z,7.30
2019-05-02T02:16:00.222Z,7.40
2019-05-02T02:18:32.202Z,7.40
2019-05-02T02:21:09.569Z,7.40
2019-05-02T02:24:03.550Z,7.50
2019-05-02T02:26:33.219Z,7.50
2019-05-02T02:29:03.014Z,7.50
2019-05-02T02:31:39.884Z,7.50
2019-05-02T02:34:05.252Z,7.50
2019-05-02T02:36:35.052Z,7.50
2019-05-02T02:39:07.222Z,7.50
2019-05-02T02:41:38.167Z,7.60
2019-05-02T02:44:42.694Z,7.60
2019-05-02T02:47:18.746Z,7.60
2019-05-02T02:49:43.823Z,7.60
2019-05-02T02:52:13.035Z,7.60
2019-05-02T02:54:43.647Z,7.60
2019-05-02T02:57:26.098Z,7.60
2019-05-02T02:59:44.927Z,7.70
2019-05-02T03:02:14.164Z,7.70
2019-05-02T03:04:45.942Z,7.70
2019-05-02T03:07:24.619Z,7.60
2019-05-02T03:09:45.743Z,7.60
2019-05-02T03:12:41.403Z,7.60
2019-05-02T03:15:13.960Z,7.50
2019-05-02T03:17:43.448Z,7.40
2019-05-02T03:20:12.582Z,7.40
2019-05-02T03:22:43.613Z,7.50
2019-05-02T03:25:18.426Z,7.50
2019-05-02T03:27:44.445Z,7.40
2019-05-02T03:30:29.649Z,7.50
2019-05-02T03:33:03.402Z,7.50
2019-05-02T03:35:18.824Z,7.40
2019-05-02T03:37:51.403Z,7.50
2019-05-02T03:40:18.159Z,7.40
2019-05-02T03:42:47.834Z,7.40
2019-05-02T03:45:17.457Z,7.50
2019-05-02T03:47:47.707Z,7.40
2019-05-02T03:50:16.900Z,7.40
2019-05-02T03:52:46.755Z,7.40
2019-05-02T03:55:16.258Z,7.40
2019-05-02T03:57:45.792Z,7.40
2019-05-02T04:00:21.261Z,7.40
2019-05-02T04:02:58.980Z,7.30
2019-05-02T04:05:19.668Z,7.40
2019-05-02T04:07:48.870Z,7.30
2019-05-02T04:10:38.008Z,7.40
2019-05-02T04:13:08.236Z,7.30
2019-05-02T04:15:37.733Z,7.30
2019-05-02T04:18:08.586Z,7.30
2019-05-02T04:20:43.529Z,7.30
2019-05-02T04:23:09.524Z,7.30
2019-05-02T04:25:39.341Z,7.30
2019-05-02T04:28:12.112Z,7.20
2019-05-02T04:30:45.137Z,7.30
2019-05-02T04:33:12.128Z,7.30
2019-05-02T04:35:41.391Z,7.40
2019-05-02T04:38:20.233Z,7.50
2019-05-02T04:40:46.407Z,7.50
2019-05-02T04:43:12.650Z,7.50
2019-05-02T04:45:53.082Z,7.50
2019-05-02T04:48:13.609Z,7.50
2019-05-02T04:50:42.727Z,7.50
2019-05-02T04:53:12.118Z,7.60
2019-05-02T04:55:42.227Z,7.60
2019-05-02T04:58:11.339Z,7.60
2019-05-02T05:00:45.103Z,7.60
2019-05-02T05:03:15.432Z,7.50
2019-05-02T05:05:43.425Z,7.50
2019-05-02T05:08:19.623Z,7.60
2019-05-02T05:10:45.086Z,7.60
2019-05-02T05:13:19.892Z,7.60
2019-05-02T05:15:49.531Z,7.70
2019-05-02T05:18:17.636Z,7.80
2019-05-02T05:20:53.271Z,7.80
2019-05-02T05:23:38.186Z,7.90
2019-05-02T05:26:07.639Z,8.00
2019-05-02T05:28:40.542Z,8.40
2019-05-02T05:31:08.403Z,8.50
2019-05-02T05:33:38.440Z,8.40
2019-05-02T05:36:08.161Z,8.50
2019-05-02T05:38:40.420Z,8.60
2019-05-02T05:41:12.852Z,8.70
2019-05-02T05:43:44.875Z,8.80
2019-05-02T05:46:13.228Z,9.00
2019-05-02T05:48:42.519Z,9.00
2019-05-02T05:51:16.053Z,9.10
2019-05-02T05:53:42.776Z,9.30
2019-05-02T05:56:11.935Z,9.40
2019-05-02T05:58:50.483Z,9.70
2019-05-02T06:01:11.996Z,9.90
2019-05-02T06:03:44.881Z,10.00
2019-05-02T06:06:14.796Z,10.40
2019-05-02T06:08:44.224Z,10.60
2019-05-02T06:11:14.866Z,10.80
2019-05-02T06:13:48.785Z,10.90
2019-05-02T06:16:16.702Z,11.10
2019-05-02T06:18:46.624Z,11.60
2019-05-02T06:21:17.169Z,11.70
2019-05-02T06:23:46.727Z,11.70
2019-05-02T06:26:16.679Z,11.80
2019-05-02T06:28:45.922Z,11.90
2019-05-02T06:31:17.106Z,11.90
2019-05-02T06:33:46.738Z,12.00
2019-05-02T06:36:16.643Z,12.40
2019-05-02T06:38:46.259Z,12.30
2019-05-02T06:41:16.196Z,12.50
2019-05-02T06:43:48.271Z,12.60
2019-05-02T06:46:21.951Z,13.00
2019-05-02T06:48:52.279Z,13.20
2019-05-02T06:51:21.053Z,13.20
2019-05-02T06:53:50.748Z,13.40
2019-05-02T06:56:20.487Z,13.70
2019-05-02T06:58:50.007Z,14.00
2019-05-02T07:01:21.136Z,13.70
2019-05-02T07:03:50.111Z,13.70
2019-05-02T07:06:20.047Z,14.50
2019-05-02T07:08:49.281Z,14.80
2019-05-02T07:11:18.506Z,15.00
2019-05-02T07:13:47.616Z,15.40
2019-05-02T07:16:37.803Z,15.40
2019-05-02T07:18:59.524Z,15.80
2019-05-02T07:21:28.672Z,15.90
2019-05-02T07:23:58.243Z,15.70
2019-05-02T07:26:27.379Z,15.40
2019-05-02T07:28:57.151Z,15.80
2019-05-02T07:31:26.856Z,16.00
2019-05-02T07:33:56.907Z,15.80
2019-05-02T07:36:31.342Z,15.30
2019-05-02T07:39:04.956Z,16.10
2019-05-02T07:41:30.285Z,15.80
2019-05-02T07:43:59.928Z,15.70
2019-05-02T07:46:29.183Z,15.70
2019-05-02T07:48:58.663Z,15.90
2019-05-02T07:51:28.543Z,16.00
2019-05-02T07:53:58.208Z,16.40
2019-05-02T07:56:27.695Z,16.20
2019-05-02T07:58:57.340Z,16.40
2019-05-02T08:01:27.131Z,16.40
2019-05-02T08:03:57.512Z,15.80
2019-05-02T08:06:34.965Z,16.20
2019-05-02T08:09:01.801Z,16.40
2019-05-02T08:11:32.172Z,16.30
2019-05-02T08:14:00.709Z,16.60
2019-05-02T08:16:29.922Z,16.70
2019-05-02T08:19:01.271Z,17.00
2019-05-02T08:21:32.495Z,17.70
2019-05-02T08:24:02.152Z,17.50
2019-05-02T08:26:53.465Z,17.00
2019-05-02T08:29:23.524Z,17.20
2019-05-02T08:31:52.395Z,17.70
2019-05-02T08:34:30.257Z,16.70
2019-05-02T08:37:03.326Z,16.00
2019-05-02T08:39:33.797Z,16.60
2019-05-02T08:42:02.046Z,17.50
2019-05-02T08:44:31.477Z,17.90
2019-05-02T08:47:00.859Z,17.60
2019-05-02T08:49:30.747Z,17.30
2019-05-02T08:52:00.166Z,17.00
2019-05-02T08:54:32.883Z,17.10
2019-05-02T08:57:00.644Z,16.60
2019-05-02T08:59:30.597Z,16.50
2019-05-02T09:01:59.711Z,16.60
2019-05-02T09:04:30.413Z,16.50
2019-05-02T09:07:00.752Z,16.50
2019-05-02T09:09:30.219Z,16.50
2019-05-02T09:12:10.717Z,16.60
2019-05-02T09:14:32.224Z,16.60
2019-05-02T09:17:08.602Z,16.60
2019-05-02T09:19:34.892Z,16.40
2019-05-02T09:22:07.692Z,16.30
2019-05-02T09:24:35.791Z,16.20
2019-05-02T09:27:04.911Z,16.40
2019-05-02T09:29:37.333Z,16.60
2019-05-02T09:32:05.022Z,16.80
2019-05-02T09:34:34.178Z,17.10
2019-05-02T09:37:03.395Z,17.10
2019-05-02T09:39:36.469Z,17.40
2019-05-02T09:42:06.691Z,17.20
2019-05-02T09:44:35.390Z,17.50
2019-05-02T09:47:05.047Z,17.40
2019-05-02T09:49:34.283Z,17.80
2019-05-02T09:52:03.768Z,17.70
2019-05-02T09:54:37.019Z,17.10
2019-05-02T09:57:05.095Z,16.90
2019-05-02T09:59:34.935Z,16.70
2019-05-02T10:02:06.436Z,16.80
2019-05-02T10:04:35.674Z,16.60
2019-05-02T10:07:05.047Z,16.70
2019-05-02T10:09:34.177Z,16.60
2019-05-02T10:12:03.360Z,16.60
2019-05-02T10:14:33.217Z,16.60
2019-05-02T10:17:06.932Z,16.80
2019-05-02T10:19:34.781Z,17.00
2019-05-02T10:22:04.189Z,17.10
2019-05-02T10:24:33.774Z,17.40
2019-05-02T10:27:08.248Z,17.50
2019-05-02T10:29:34.143Z,17.30
2019-05-02T10:32:07.630Z,17.30
2019-05-02T10:34:34.466Z,17.40
2019-05-02T10:37:03.587Z,17.20
2019-05-02T10:39:36.187Z,17.20
2019-05-02T10:42:03.764Z,17.30
2019-05-02T10:44:36.441Z,17.30
2019-05-02T10:47:04.609Z,17.40
2019-05-02T10:50:05.223Z,17.30
2019-05-02T10:52:34.828Z,17.30
2019-05-02T10:55:05.070Z,17.00
2019-05-02T10:57:34.656Z,17.00
2019-05-02T11:00:04.587Z,17.30
2019-05-02T11:03:02.630Z,17.20
2019-05-02T11:05:33.387Z,17.40
2019-05-02T11:08:06.253Z,17.20
2019-05-02T11:10:33.790Z,16.90
2019-05-02T11:13:14.235Z,17.00
2019-05-02T11:16:09.603Z,17.40
2019-05-02T11:18:57.247Z,17.50
2019-05-02T11:21:26.771Z,17.40
2019-05-02T11:23:56.179Z,17.70
2019-05-02T11:26:26.109Z,17.60
2019-05-02T11:28:55.719Z,17.90
2019-05-02T11:31:25.899Z,17.70
2019-05-02T11:33:55.061Z,17.50
2019-05-02T11:36:27.397Z,17.40
2019-05-02T11:39:08.442Z,17.70
2019-05-02T11:41:26.583Z,17.90
2019-05-02T11:43:55.935Z,17.80
2019-05-02T11:46:25.192Z,17.80
2019-05-02T11:48:58.433Z,18.00
2019-05-02T11:51:26.322Z,17.80
2019-05-02T11:53:59.207Z,18.10
2019-05-02T11:56:26.467Z,18.00
2019-05-02T11:58:55.917Z,18.10
2019-05-02T12:01:35.570Z,18.00
2019-05-02T12:03:56.183Z,18.20
2019-05-02T12:06:25.311Z,18.20
2019-05-02T12:08:54.459Z,18.00
2019-05-02T12:11:23.627Z,18.10
2019-05-02T12:13:56.957Z,18.10
2019-05-02T12:16:24.798Z,18.20
2019-05-02T12:19:07.914Z,18.30
2019-05-02T12:21:25.755Z,18.60
2019-05-02T12:23:55.259Z,18.60
2019-05-02T12:26:25.076Z,18.80
2019-05-02T12:28:54.667Z,18.60
2019-05-02T12:31:28.771Z,18.60
2019-05-02T12:33:59.432Z,18.50
2019-05-02T12:36:28.559Z,18.50
2019-05-02T12:38:58.036Z,18.40
2019-05-02T12:41:27.495Z,18.60
2019-05-02T12:43:56.940Z,18.70
2019-05-02T12:46:28.469Z,18.90
2019-05-02T12:48:57.346Z,19.00
2019-05-02T12:51:26.482Z,19.00
2019-05-02T12:53:55.959Z,18.90
2019-05-02T12:56:25.777Z,19.00
2019-05-02T12:58:55.207Z,18.80
2019-05-02T13:01:24.807Z,18.70
2019-05-02T13:04:04.882Z,18.80
2019-05-02T13:06:37.105Z,18.80
2019-05-02T13:09:09.920Z,18.60
2019-05-02T13:11:58.643Z,18.60
2019-05-02T13:14:31.879Z,18.80
2019-05-02T13:17:05.615Z,18.70
2019-05-02T13:19:40.007Z,18.50
2019-05-02T13:22:13.742Z,18.70
2019-05-02T13:24:51.285Z,18.70
2019-05-02T13:27:18.467Z,19.10
2019-05-02T13:29:49.640Z,19.30
2019-05-02T13:32:26.703Z,19.70
2019-05-02T13:35:02.265Z,19.40
2019-05-02T13:37:32.599Z,19.50
2019-05-02T13:40:07.581Z,19.50
2019-05-02T13:42:37.117Z,18.70
2019-05-02T13:45:17.419Z,18.50
2019-05-02T13:47:46.864Z,18.80
2019-05-02T13:50:18.756Z,19.10
2019-05-02T13:52:53.166Z,19.30
2019-05-02T13:55:23.763Z,19.10
2019-05-02T13:57:53.287Z,19.10
2019-05-02T14:00:29.220Z,18.70
2019-05-02T14:02:58.861Z,18.50
2019-05-02T14:05:28.010Z,18.50
2019-05-02T14:08:15.418Z,18.70
2019-05-02T14:10:45.883Z,19.00
2019-05-02T14:13:15.379Z,19.30
2019-05-02T14:15:44.916Z,19.10
2019-05-02T14:18:14.027Z,19.40
2019-05-02T14:20:54.787Z,19.20
2019-05-02T14:23:23.907Z,19.00
2019-05-02T14:25:53.121Z,18.80
2019-05-02T14:28:26.846Z,18.70
2019-05-02T14:30:54.260Z,18.70
2019-05-02T14:33:26.517Z,18.90
2019-05-02T14:35:55.755Z,19.10
2019-05-02T14:38:24.951Z,18.80
2019-05-02T14:41:14.599Z,18.70
2019-05-02T14:43:53.230Z,18.70
2019-05-02T14:46:28.852Z,18.40
2019-05-02T14:48:55.476Z,18.40
2019-05-02T14:51:27.681Z,18.30
2019-05-02T14:53:57.480Z,18.30
2019-05-02T14:56:43.405Z,18.40
2019-05-02T14:59:15.348Z,18.30
2019-05-02T15:01:46.679Z,18.30
2019-05-02T15:04:14.953Z,18.30
2019-05-02T15:06:47.446Z,18.20
2019-05-02T15:09:16.766Z,18.20
2019-05-02T15:12:03.133Z,18.30
2019-05-02T15:14:34.760Z,18.40
2019-05-02T15:17:05.137Z,18.20
2019-05-02T15:19:34.796Z,17.90
2019-05-02T15:22:03.950Z,17.80
2019-05-02T15:24:37.433Z,16.60
2019-05-02T15:27:12.060Z,15.60
2019-05-02T15:29:35.053Z,15.10
2019-05-02T15:32:25.219Z,14.50
2019-05-02T15:35:12.783Z,13.70
2019-05-02T15:37:42.518Z,13.20
2019-05-02T15:40:43.483Z,10.70
2019-05-02T15:42:52.159Z,12.40
2019-05-02T15:45:23.789Z,12.20
2019-05-02T15:47:53.075Z,12.20
2019-05-02T15:50:25.360Z,12.00
2019-05-02T15:53:03.136Z,12.10
2019-05-02T15:55:32.498Z,11.80
2019-05-02T15:58:02.451Z,11.80
2019-05-02T16:00:36.684Z,11.80
2019-05-02T16:03:05.809Z,12.00
2019-05-02T16:05:36.679Z,12.10
2019-05-02T16:08:08.914Z,12.00
2019-05-02T16:10:38.728Z,11.80
2019-05-02T16:13:15.738Z,11.90
2019-05-02T16:15:42.801Z,11.90
2019-05-02T16:18:12.878Z,12.10
2019-05-02T16:21:04.501Z,12.30
2019-05-02T16:23:29.442Z,12.20
2019-05-02T16:25:56.842Z,12.20
2019-05-02T16:28:24.360Z,12.30
2019-05-02T16:30:56.335Z,12.50
2019-05-02T16:33:25.868Z,12.50
2019-05-02T16:35:55.291Z,12.60
2019-05-02T16:38:26.791Z,12.70
2019-05-02T16:40:56.132Z,12.70
2019-05-02T16:43:27.250Z,12.50
2019-05-02T16:45:57.454Z,12.60
2019-05-02T16:48:30.561Z,12.70
2019-05-02T16:50:57.735Z,12.70
2019-05-02T16:53:27.209Z,12.70
2019-05-02T16:55:58.346Z,12.70
2019-05-02T16:58:27.555Z,12.70
2019-05-02T17:00:57.131Z,12.50
2019-05-02T17:03:26.616Z,12.50
2019-05-02T17:05:56.382Z,12.70
2019-05-02T17:08:44.479Z,12.80
2019-05-02T17:11:35.614Z,12.70
2019-05-02T17:14:06.963Z,12.60
2019-05-02T17:16:34.578Z,12.50
2019-05-02T17:19:04.158Z,12.60
2019-05-02T17:21:52.206Z,12.60
2019-05-02T17:24:04.526Z,12.60
2019-05-02T17:26:34.067Z,12.70
2019-05-02T17:29:03.461Z,12.70
2019-05-02T17:31:33.152Z,12.70
2019-05-02T17:34:02.834Z,12.70
2019-05-02T17:36:32.545Z,12.50
2019-05-02T17:39:06.357Z,12.40
2019-05-02T17:41:37.003Z,12.50
2019-05-02T17:44:04.687Z,12.20
2019-05-02T17:46:33.817Z,12.30
2019-05-02T17:49:03.355Z,12.30
2019-05-02T17:51:51.917Z,12.20
2019-05-02T17:54:22.694Z,12.10
2019-05-02T17:56:57.413Z,12.10
2019-05-02T17:59:28.133Z,12.00
2019-05-02T18:01:54.574Z,12.10
2019-05-02T18:04:23.751Z,12.10
2019-05-02T18:06:55.117Z,12.00
2019-05-02T18:09:26.271Z,11.90
2019-05-02T18:11:57.004Z,12.00
2019-05-02T18:14:27.189Z,12.00
2019-05-02T18:16:57.315Z,11.90
2019-05-02T18:19:26.931Z,12.00
2019-05-02T18:21:58.105Z,12.10
2019-05-02T18:24:28.123Z,12.00
2019-05-02T18:26:57.364Z,12.10
2019-05-02T18:29:27.292Z,12.00
2019-05-02T18:31:56.827Z,12.00
2019-05-02T18:34:26.851Z,12.00
2019-05-02T18:36:57.327Z,12.00
2019-05-02T18:39:26.903Z,12.00
2019-05-02T18:41:57.300Z,11.90
2019-05-02T18:44:27.048Z,11.90
2019-05-02T18:46:57.862Z,11.90
2019-05-02T18:49:27.161Z,11.90
2019-05-02T18:51:57.541Z,11.80
2019-05-02T18:54:27.223Z,11.80
2019-05-02T18:56:57.537Z,11.70
2019-05-02T18:59:27.418Z,11.70
2019-05-02T19:01:59.613Z,11.80
2019-05-02T19:04:35.218Z,11.60
2019-05-02T19:07:00.190Z,11.60
2019-05-02T19:09:30.557Z,11.60
2019-05-02T19:12:06.559Z,11.60
2019-05-02T19:14:32.709Z,11.60
2019-05-02T19:17:03.550Z,11.60
2019-05-02T19:19:36.678Z,11.70
2019-05-02T19:22:07.452Z,11.60
2019-05-02T19:24:36.472Z,11.60
2019-05-02T19:27:06.276Z,11.50
2019-05-02T19:29:35.863Z,11.50
2019-05-02T19:32:08.327Z,11.60
2019-05-02T19:34:37.930Z,11.50
2019-05-02T19:37:07.439Z,11.50
2019-05-02T19:39:39.134Z,11.40
2019-05-02T19:42:09.861Z,11.40
2019-05-02T19:44:39.462Z,11.40
2019-05-02T19:47:12.965Z,11.40
2019-05-02T19:49:39.470Z,11.50
2019-05-02T19:52:08.581Z,11.30
2019-05-02T19:54:39.751Z,11.30
2019-05-02T19:57:09.084Z,11.30
2019-05-02T19:59:38.551Z,11.20
2019-05-02T20:02:08.091Z,11.30
2019-05-02T20:04:42.711Z,11.30
2019-05-02T20:07:08.735Z,11.10
2019-05-02T20:09:43.734Z,11.00
2019-05-02T20:12:13.421Z,11.10
2019-05-02T20:14:43.571Z,11.10
2019-05-02T20:17:14.898Z,10.90
2019-05-02T20:19:47.162Z,10.80
2019-05-02T20:22:17.939Z,10.90
2019-05-02T20:24:59.861Z,10.90
2019-05-02T20:27:28.515Z,10.90
2019-05-02T20:29:57.618Z,10.70
2019-05-02T20:32:26.870Z,10.60
2019-05-02T20:34:56.319Z,10.50
2019-05-02T20:37:25.531Z,10.50
2019-05-02T20:39:55.005Z,10.30
2019-05-02T20:42:24.123Z,10.20
2019-05-02T20:44:54.159Z,10.30
2019-05-02T20:47:25.670Z,10.20
2019-05-02T20:49:55.207Z,10.30
2019-05-02T20:52:24.708Z,10.30
2019-05-02T20:54:54.309Z,10.20
2019-05-02T20:57:23.441Z,10.00
2019-05-02T20:59:52.782Z,10.00
2019-05-02T21:02:22.424Z,10.00
2019-05-02T21:04:52.362Z,10.00
2019-05-02T21:07:39.602Z,9.90
2019-05-02T21:10:33.605Z,10.00
2019-05-02T21:13:03.191Z,9.90
2019-05-02T21:15:32.722Z,9.90
2019-05-02T21:18:02.461Z,10.00
2019-05-02T21:20:32.506Z,10.00
2019-05-02T21:23:02.694Z,10.10
2019-05-02T21:25:32.552Z,10.10
2019-05-02T21:28:02.910Z,9.90
2019-05-02T21:30:32.782Z,10.00
2019-05-02T21:33:02.764Z,10.10
2019-05-02T21:35:32.212Z,10.00
2019-05-02T21:38:01.551Z,9.90
2019-05-02T21:40:32.714Z,9.90
2019-05-02T21:43:02.542Z,10.00
2019-05-02T21:45:32.266Z,10.00
2019-05-02T21:48:02.328Z,10.00
2019-05-02T21:50:47.206Z,10.10
2019-05-02T21:53:24.307Z,9.90
2019-05-02T21:56:08.493Z,9.90
2019-05-02T21:58:37.695Z,10.00
2019-05-02T22:01:10.186Z,10.00
2019-05-02T22:03:41.100Z,9.90
2019-05-02T22:06:12.202Z,10.00
2019-05-02T22:08:41.865Z,9.90
2019-05-02T22:11:12.244Z,10.00
2019-05-02T22:13:42.445Z,9.90
2019-05-02T22:16:12.948Z,10.00
2019-05-02T22:18:42.871Z,10.00
2019-05-02T22:21:12.458Z,9.90
2019-05-02T22:23:42.527Z,9.90
2019-05-02T22:26:12.733Z,9.80
2019-05-02T22:28:42.484Z,9.70
2019-05-02T22:31:12.505Z,9.90
2019-05-02T22:33:44.303Z,9.80
2019-05-02T22:36:12.966Z,9.90
2019-05-02T22:39:02.074Z,9.80
2019-05-02T22:41:32.673Z,9.90
2019-05-02T22:44:02.147Z,9.80
2019-05-02T22:46:43.469Z,9.70
2019-05-02T22:49:14.500Z,9.80
2019-05-02T22:51:45.034Z,9.90
2019-05-02T22:54:26.766Z,9.80
2019-05-02T22:56:46.308Z,9.80
2019-05-02T22:59:15.790Z,9.80
2019-05-02T23:01:44.939Z,9.80
2019-05-02T23:04:14.420Z,9.80
2019-05-02T23:06:44.432Z,9.80
2019-05-02T23:09:13.938Z,9.70
2019-05-02T23:11:43.433Z,9.70
2019-05-02T23:14:13.250Z,9.80
2019-05-02T23:16:42.945Z,9.70
2019-05-02T23:19:12.645Z,9.70
2019-05-02T23:21:42.428Z,9.70
2019-05-02T23:24:18.067Z,9.70
2019-05-02T23:26:56.610Z,9.80
2019-05-02T23:29:26.368Z,9.60
2019-05-02T23:31:55.971Z,9.60
2019-05-02T23:34:25.155Z,9.60
2019-05-02T23:36:54.574Z,9.60
2019-05-02T23:39:24.072Z,9.60
2019-05-02T23:41:53.207Z,9.60
2019-05-02T23:44:23.009Z,9.60
2019-05-02T23:46:52.783Z,9.60
2019-05-02T23:49:22.148Z,9.70
2019-05-02T23:51:52.043Z,9.60
2019-05-02T23:54:22.054Z,9.60
2019-05-02T23:56:52.064Z,9.50
2019-05-02T23:59:22.375Z,9.50
